sensor_id;sensor_type;location;lat;lon;timestamp;pressure;altitude;pressure_sealevel;temperature;humidity
32452;BME280;45528;52.102;5.242;2023-05-24T00:02:24;102105.0;;;14.59;56.63
32452;BME280;45528;52.102;5.242;2023-05-24T00:04:00;102105.0;;;14.46;57.01
32452;BME280;45528;52.102;5.242;2023-05-24T00:05:36;102105.0;;;14.43;57.2
32452;BME280;45528;52.102;5.242;2023-05-24T00:08:48;102105.0;;;14.39;57.23
32452;BME280;45528;52.102;5.242;2023-05-24T00:10:25;102103.0;;;14.5;56.99
32452;BME280;45528;52.102;5.242;2023-05-24T00:12:01;102098.0;;;14.56;56.85
32452;BME280;45528;52.102;5.242;2023-05-24T00:13:38;102100.0;;;14.48;56.99
32452;BME280;45528;52.102;5.242;2023-05-24T00:16:50;102099.0;;;14.4;57.38
32452;BME280;45528;52.102;5.242;2023-05-24T00:18:26;102092.0;;;14.22;57.86
32452;BME280;45528;52.102;5.242;2023-05-24T00:20:03;102095.0;;;14.38;57.46
32452;BME280;45528;52.102;5.242;2023-05-24T00:23:16;102093.0;;;14.3;57.31
32452;BME280;45528;52.102;5.242;2023-05-24T00:24:52;102095.0;;;14.28;57.64
32452;BME280;45528;52.102;5.242;2023-05-24T00:26:28;102091.0;;;14.26;57.82
32452;BME280;45528;52.102;5.242;2023-05-24T00:29:41;102095.0;;;14.48;57.03
32452;BME280;45528;52.102;5.242;2023-05-24T00:31:17;102091.0;;;14.53;56.79
32452;BME280;45528;52.102;5.242;2023-05-24T00:32:53;102090.0;;;14.4;57.17
32452;BME280;45528;52.102;5.242;2023-05-24T00:36:05;102085.0;;;14.5;56.8
32452;BME280;45528;52.102;5.242;2023-05-24T00:37:41;102088.0;;;14.53;56.59
32452;BME280;45528;52.102;5.242;2023-05-24T00:39:17;102087.0;;;14.45;56.76
32452;BME280;45528;52.102;5.242;2023-05-24T00:40:54;102090.0;;;14.3;57.16
32452;BME280;45528;52.102;5.242;2023-05-24T00:44:06;102087.0;;;14.1;57.5
32452;BME280;45528;52.102;5.242;2023-05-24T00:45:42;102083.0;;;13.94;58.32
32452;BME280;45528;52.102;5.242;2023-05-24T00:47:18;102082.0;;;13.94;58.25
32452;BME280;45528;52.102;5.242;2023-05-24T00:50:32;102075.0;;;13.86;58.38
32452;BME280;45528;52.102;5.242;2023-05-24T00:52:09;102076.0;;;13.95;57.89
32452;BME280;45528;52.102;5.242;2023-05-24T00:53:46;102077.0;;;14.0;57.82
32452;BME280;45528;52.102;5.242;2023-05-24T00:56:59;102080.0;;;14.0;57.46
32452;BME280;45528;52.102;5.242;2023-05-24T00:58:35;102075.0;;;13.92;57.86
32452;BME280;45528;52.102;5.242;2023-05-24T01:00:12;102074.0;;;13.99;57.36
32452;BME280;45528;52.102;5.242;2023-05-24T01:01:48;102075.0;;;13.87;57.86
32452;BME280;45528;52.102;5.242;2023-05-24T01:05:03;102078.0;;;13.98;57.7
32452;BME280;45528;52.102;5.242;2023-05-24T01:06:50;102077.0;;;14.02;57.52
32452;BME280;45528;52.102;5.242;2023-05-24T01:08:44;102072.0;;;14.12;57.2
32452;BME280;45528;52.102;5.242;2023-05-24T01:10:33;102075.0;;;14.13;57.02
32452;BME280;45528;52.102;5.242;2023-05-24T01:12:22;102077.0;;;14.15;56.97
32452;BME280;45528;52.102;5.242;2023-05-24T01:15:58;102080.0;;;13.99;57.66
32452;BME280;45528;52.102;5.242;2023-05-24T01:17:42;102076.0;;;13.84;58.07
32452;BME280;45528;52.102;5.242;2023-05-24T01:19:46;102074.0;;;13.87;58.21
32452;BME280;45528;52.102;5.242;2023-05-24T01:21:54;102074.0;;;13.79;58.35
32452;BME280;45528;52.102;5.242;2023-05-24T01:23:42;102070.0;;;13.73;58.7
32452;BME280;45528;52.102;5.242;2023-05-24T01:25:32;102070.0;;;13.78;58.72
32452;BME280;45528;52.102;5.242;2023-05-24T01:27:22;102070.0;;;13.85;58.54
32452;BME280;45528;52.102;5.242;2023-05-24T01:28:59;102073.0;;;13.84;58.48
32452;BME280;45528;52.102;5.242;2023-05-24T01:32:15;102072.0;;;13.81;58.59
32452;BME280;45528;52.102;5.242;2023-05-24T01:33:53;102071.0;;;13.78;58.74
32452;BME280;45528;52.102;5.242;2023-05-24T01:35:29;102075.0;;;13.85;58.6
32452;BME280;45528;52.102;5.242;2023-05-24T01:38:42;102080.0;;;14.08;57.91
32452;BME280;45528;52.102;5.242;2023-05-24T01:40:19;102074.0;;;14.08;58.04
32452;BME280;45528;52.102;5.242;2023-05-24T01:42:06;102080.0;;;14.19;57.59
32452;BME280;45528;52.102;5.242;2023-05-24T01:43:47;102080.0;;;14.04;58.08
32452;BME280;45528;52.102;5.242;2023-05-24T01:47:21;102078.0;;;13.83;58.63
32452;BME280;45528;52.102;5.242;2023-05-24T01:49:10;102080.0;;;13.76;59.23
32452;BME280;45528;52.102;5.242;2023-05-24T01:50:57;102080.0;;;13.65;59.11
32452;BME280;45528;52.102;5.242;2023-05-24T01:52:35;102082.0;;;13.61;59.36
32452;BME280;45528;52.102;5.242;2023-05-24T01:54:12;102081.0;;;13.6;59.56
32452;BME280;45528;52.102;5.242;2023-05-24T01:57:32;102078.0;;;13.6;59.46
32452;BME280;45528;52.102;5.242;2023-05-24T01:59:10;102080.0;;;13.64;59.2
32452;BME280;45528;52.102;5.242;2023-05-24T02:00:47;102078.0;;;13.61;59.34
32452;BME280;45528;52.102;5.242;2023-05-24T02:02:24;102072.0;;;13.59;59.5
32452;BME280;45528;52.102;5.242;2023-05-24T02:05:37;102070.0;;;13.65;59.31
32452;BME280;45528;52.102;5.242;2023-05-24T02:07:14;102066.0;;;13.77;58.81
32452;BME280;45528;52.102;5.242;2023-05-24T02:08:50;102070.0;;;13.88;58.68
32452;BME280;45528;52.102;5.242;2023-05-24T02:12:02;102066.0;;;13.95;58.37
32452;BME280;45528;52.102;5.242;2023-05-24T02:13:39;102069.0;;;13.77;58.92
32452;BME280;45528;52.102;5.242;2023-05-24T02:15:15;102068.0;;;13.74;59.17
32452;BME280;45528;52.102;5.242;2023-05-24T02:18:28;102067.0;;;13.65;59.26
32452;BME280;45528;52.102;5.242;2023-05-24T02:20:05;102071.0;;;13.61;59.42
32452;BME280;45528;52.102;5.242;2023-05-24T02:21:41;102072.0;;;13.59;59.46
32452;BME280;45528;52.102;5.242;2023-05-24T02:24:53;102070.0;;;13.68;59.37
32452;BME280;45528;52.102;5.242;2023-05-24T02:26:29;102070.0;;;13.76;59.05
32452;BME280;45528;52.102;5.242;2023-05-24T02:28:05;102070.0;;;13.89;58.64
32452;BME280;45528;52.102;5.242;2023-05-24T02:29:42;102074.0;;;13.87;58.69
32452;BME280;45528;52.102;5.242;2023-05-24T02:32:54;102075.0;;;13.94;58.37
32452;BME280;45528;52.102;5.242;2023-05-24T02:34:30;102077.0;;;13.82;58.68
32452;BME280;45528;52.102;5.242;2023-05-24T02:36:06;102080.0;;;13.65;59.13
32452;BME280;45528;52.102;5.242;2023-05-24T02:39:19;102076.0;;;13.67;59.29
32452;BME280;45528;52.102;5.242;2023-05-24T02:40:55;102073.0;;;13.77;58.69
32452;BME280;45528;52.102;5.242;2023-05-24T02:42:31;102076.0;;;13.64;58.81
32452;BME280;45528;52.102;5.242;2023-05-24T02:45:43;102075.0;;;13.59;59.08
32452;BME280;45528;52.102;5.242;2023-05-24T02:47:19;102073.0;;;13.43;59.39
32452;BME280;45528;52.102;5.242;2023-05-24T02:48:55;102074.0;;;13.36;59.65
32452;BME280;45528;52.102;5.242;2023-05-24T02:52:08;102073.0;;;13.31;59.93
32452;BME280;45528;52.102;5.242;2023-05-24T02:53:44;102072.0;;;13.2;60.07
32452;BME280;45528;52.102;5.242;2023-05-24T02:55:20;102072.0;;;13.15;60.59
32452;BME280;45528;52.102;5.242;2023-05-24T02:56:56;102073.0;;;13.19;60.5
32452;BME280;45528;52.102;5.242;2023-05-24T03:00:10;102075.0;;;13.27;60.03
32452;BME280;45528;52.102;5.242;2023-05-24T03:01:46;102080.0;;;13.27;59.68
32452;BME280;45528;52.102;5.242;2023-05-24T03:03:22;102075.0;;;13.29;59.8
32452;BME280;45528;52.102;5.242;2023-05-24T03:06:35;102080.0;;;13.31;59.7
32452;BME280;45528;52.102;5.242;2023-05-24T03:08:11;102085.0;;;13.39;59.74
32452;BME280;45528;52.102;5.242;2023-05-24T03:09:47;102086.0;;;13.33;59.77
32452;BME280;45528;52.102;5.242;2023-05-24T03:12:59;102081.0;;;13.28;59.77
32452;BME280;45528;52.102;5.242;2023-05-24T03:14:35;102078.0;;;13.23;59.68
32452;BME280;45528;52.102;5.242;2023-05-24T03:16:12;102080.0;;;13.17;60.2
32452;BME280;45528;52.102;5.242;2023-05-24T03:17:48;102080.0;;;13.38;59.64
32452;BME280;45528;52.102;5.242;2023-05-24T03:21:00;102085.0;;;13.38;59.41
32452;BME280;45528;52.102;5.242;2023-05-24T03:22:36;102080.0;;;13.29;59.55
32452;BME280;45528;52.102;5.242;2023-05-24T03:24:12;102073.0;;;13.32;59.6
32452;BME280;45528;52.102;5.242;2023-05-24T03:27:25;102067.0;;;13.22;59.5
32452;BME280;45528;52.102;5.242;2023-05-24T03:29:01;102067.0;;;13.15;59.91
32452;BME280;45528;52.102;5.242;2023-05-24T03:30:37;102068.0;;;13.25;59.47
32452;BME280;45528;52.102;5.242;2023-05-24T03:33:49;102064.0;;;13.17;59.85
32452;BME280;45528;52.102;5.242;2023-05-24T03:35:25;102064.0;;;13.14;59.84
32452;BME280;45528;52.102;5.242;2023-05-24T03:37:02;102066.0;;;13.05;59.9
32452;BME280;45528;52.102;5.242;2023-05-24T03:40:14;102066.0;;;12.91;60.38
32452;BME280;45528;52.102;5.242;2023-05-24T03:41:50;102063.0;;;12.9;60.49
32452;BME280;45528;52.102;5.242;2023-05-24T03:43:26;102062.0;;;12.94;60.49
32452;BME280;45528;52.102;5.242;2023-05-24T03:45:03;102062.0;;;12.87;60.6
32452;BME280;45528;52.102;5.242;2023-05-24T03:48:16;102063.0;;;12.93;60.49
32452;BME280;45528;52.102;5.242;2023-05-24T03:49:52;102064.0;;;12.9;60.44
32452;BME280;45528;52.102;5.242;2023-05-24T03:51:28;102062.0;;;12.91;60.56
32452;BME280;45528;52.102;5.242;2023-05-24T03:54:40;102061.0;;;12.94;60.48
32452;BME280;45528;52.102;5.242;2023-05-24T03:56:16;102061.0;;;12.97;60.49
32452;BME280;45528;52.102;5.242;2023-05-24T03:57:52;102059.0;;;12.94;60.54
32452;BME280;45528;52.102;5.242;2023-05-24T04:01:05;102055.0;;;12.92;60.65
32452;BME280;45528;52.102;5.242;2023-05-24T04:02:41;102055.0;;;12.96;60.76
32452;BME280;45528;52.102;5.242;2023-05-24T04:04:17;102059.0;;;12.97;60.53
32452;BME280;45528;52.102;5.242;2023-05-24T04:05:53;102056.0;;;13.19;60.03
32452;BME280;45528;52.102;5.242;2023-05-24T04:09:05;102055.0;;;13.19;60.11
32452;BME280;45528;52.102;5.242;2023-05-24T04:10:42;102059.0;;;13.34;59.97
32452;BME280;45528;52.102;5.242;2023-05-24T04:12:18;102060.0;;;13.34;59.82
32452;BME280;45528;52.102;5.242;2023-05-24T04:15:32;102057.0;;;13.27;59.94
32452;BME280;45528;52.102;5.242;2023-05-24T04:17:08;102061.0;;;13.28;60.07
32452;BME280;45528;52.102;5.242;2023-05-24T04:18:45;102062.0;;;13.37;59.9
32452;BME280;45528;52.102;5.242;2023-05-24T04:21:57;102061.0;;;13.36;59.89
32452;BME280;45528;52.102;5.242;2023-05-24T04:23:34;102066.0;;;13.45;60.0
32452;BME280;45528;52.102;5.242;2023-05-24T04:25:10;102069.0;;;13.49;59.99
32452;BME280;45528;52.102;5.242;2023-05-24T04:28:22;102067.0;;;13.49;59.84
32452;BME280;45528;52.102;5.242;2023-05-24T04:29:58;102067.0;;;13.49;60.11
32452;BME280;45528;52.102;5.242;2023-05-24T04:31:34;102066.0;;;13.54;60.04
32452;BME280;45528;52.102;5.242;2023-05-24T04:33:10;102062.0;;;13.57;60.2
32452;BME280;45528;52.102;5.242;2023-05-24T04:36:23;102062.0;;;13.68;60.2
32452;BME280;45528;52.102;5.242;2023-05-24T04:37:59;102060.0;;;13.86;59.47
32452;BME280;45528;52.102;5.242;2023-05-24T04:39:35;102064.0;;;13.87;59.73
32452;BME280;45528;52.102;5.242;2023-05-24T04:42:48;102059.0;;;13.91;59.73
32452;BME280;45528;52.102;5.242;2023-05-24T04:44:25;102058.0;;;14.03;59.46
32452;BME280;45528;52.102;5.242;2023-05-24T04:46:01;102058.0;;;14.09;59.52
32452;BME280;45528;52.102;5.242;2023-05-24T04:49:16;102059.0;;;14.04;59.77
32452;BME280;45528;52.102;5.242;2023-05-24T04:50:53;102062.0;;;14.02;60.04
32452;BME280;45528;52.102;5.242;2023-05-24T04:52:30;102063.0;;;14.02;60.38
32452;BME280;45528;52.102;5.242;2023-05-24T04:54:06;102064.0;;;14.02;60.41
32452;BME280;45528;52.102;5.242;2023-05-24T04:57:19;102063.0;;;14.06;60.6
32452;BME280;45528;52.102;5.242;2023-05-24T04:58:55;102066.0;;;14.22;60.22
32452;BME280;45528;52.102;5.242;2023-05-24T05:00:31;102066.0;;;14.3;60.0
32452;BME280;45528;52.102;5.242;2023-05-24T05:03:43;102067.0;;;14.35;60.48
32452;BME280;45528;52.102;5.242;2023-05-24T05:05:19;102066.0;;;14.43;60.27
32452;BME280;45528;52.102;5.242;2023-05-24T05:06:56;102072.0;;;14.66;60.17
32452;BME280;45528;52.102;5.242;2023-05-24T05:10:08;102066.0;;;14.75;60.12
32452;BME280;45528;52.102;5.242;2023-05-24T05:11:45;102071.0;;;14.84;59.97
32452;BME280;45528;52.102;5.242;2023-05-24T05:13:21;102071.0;;;15.03;59.62
32452;BME280;45528;52.102;5.242;2023-05-24T05:14:57;102074.0;;;15.28;59.5
32452;BME280;45528;52.102;5.242;2023-05-24T05:18:10;102068.0;;;15.53;59.29
32452;BME280;45528;52.102;5.242;2023-05-24T05:19:46;102070.0;;;15.77;58.67
32452;BME280;45528;52.102;5.242;2023-05-24T05:21:22;102071.0;;;16.06;58.3
32452;BME280;45528;52.102;5.242;2023-05-24T05:24:34;102071.0;;;16.25;57.76
32452;BME280;45528;52.102;5.242;2023-05-24T05:26:10;102072.0;;;16.31;57.94
32452;BME280;45528;52.102;5.242;2023-05-24T05:27:46;102080.0;;;16.48;57.73
32452;BME280;45528;52.102;5.242;2023-05-24T05:30:59;102084.0;;;16.55;57.73
32452;BME280;45528;52.102;5.242;2023-05-24T05:32:35;102085.0;;;16.61;57.72
32452;BME280;45528;52.102;5.242;2023-05-24T05:34:11;102082.0;;;16.65;57.63
32452;BME280;45528;52.102;5.242;2023-05-24T05:37:23;102084.0;;;16.77;57.34
32452;BME280;45528;52.102;5.242;2023-05-24T05:38:59;102083.0;;;16.84;57.51
32452;BME280;45528;52.102;5.242;2023-05-24T05:40:35;102083.0;;;16.96;57.27
32452;BME280;45528;52.102;5.242;2023-05-24T05:42:12;102085.0;;;16.88;57.11
32452;BME280;45528;52.102;5.242;2023-05-24T05:45:24;102088.0;;;17.02;57.06
32452;BME280;45528;52.102;5.242;2023-05-24T05:47:00;102088.0;;;17.16;56.85
32452;BME280;45528;52.102;5.242;2023-05-24T05:48:36;102094.0;;;17.18;56.45
32452;BME280;45528;52.102;5.242;2023-05-24T05:51:48;102095.0;;;17.29;56.72
32452;BME280;45528;52.102;5.242;2023-05-24T05:53:25;102092.0;;;17.38;56.2
32452;BME280;45528;52.102;5.242;2023-05-24T05:55:01;102094.0;;;17.52;55.74
32452;BME280;45528;52.102;5.242;2023-05-24T05:58:13;102089.0;;;17.55;55.39
32452;BME280;45528;52.102;5.242;2023-05-24T05:59:49;102094.0;;;17.43;55.32
32452;BME280;45528;52.102;5.242;2023-05-24T06:01:25;102087.0;;;17.84;54.52
32452;BME280;45528;52.102;5.242;2023-05-24T06:03:02;102091.0;;;17.86;54.73
32452;BME280;45528;52.102;5.242;2023-05-24T06:06:14;102093.0;;;18.0;54.35
32452;BME280;45528;52.102;5.242;2023-05-24T06:07:50;102087.0;;;17.96;53.51
32452;BME280;45528;52.102;5.242;2023-05-24T06:09:26;102091.0;;;18.05;53.37
32452;BME280;45528;52.102;5.242;2023-05-24T06:12:38;102083.0;;;18.0;53.35
32452;BME280;45528;52.102;5.242;2023-05-24T06:14:15;102084.0;;;17.86;54.02
32452;BME280;45528;52.102;5.242;2023-05-24T06:15:51;102088.0;;;18.2;53.06
32452;BME280;45528;52.102;5.242;2023-05-24T06:19:03;102094.0;;;18.38;51.75
32452;BME280;45528;52.102;5.242;2023-05-24T06:20:39;102095.0;;;18.5;51.35
32452;BME280;45528;52.102;5.242;2023-05-24T06:22:15;102091.0;;;18.12;51.77
32452;BME280;45528;52.102;5.242;2023-05-24T06:25:28;102091.0;;;18.5;51.21
32452;BME280;45528;52.102;5.242;2023-05-24T06:27:04;102092.0;;;18.53;51.41
32452;BME280;45528;52.102;5.242;2023-05-24T06:28:40;102090.0;;;18.8;50.43
32452;BME280;45528;52.102;5.242;2023-05-24T06:30:16;102092.0;;;18.86;50.23
32452;BME280;45528;52.102;5.242;2023-05-24T06:33:29;102095.0;;;19.0;49.69
32452;BME280;45528;52.102;5.242;2023-05-24T06:35:07;102098.0;;;18.77;49.65
32452;BME280;45528;52.102;5.242;2023-05-24T06:36:43;102101.0;;;18.88;49.57
32452;BME280;45528;52.102;5.242;2023-05-24T06:39:56;102103.0;;;19.02;49.07
32452;BME280;45528;52.102;5.242;2023-05-24T06:41:32;102108.0;;;19.02;49.66
32452;BME280;45528;52.102;5.242;2023-05-24T06:43:08;102108.0;;;18.71;49.73
32452;BME280;45528;52.102;5.242;2023-05-24T06:46:21;102108.0;;;19.05;48.63
32452;BME280;45528;52.102;5.242;2023-05-24T06:47:57;102112.0;;;19.46;48.63
32452;BME280;45528;52.102;5.242;2023-05-24T06:49:33;102114.0;;;19.59;47.9
32452;BME280;45528;52.102;5.242;2023-05-24T06:51:09;102108.0;;;19.03;48.38
32452;BME280;45528;52.102;5.242;2023-05-24T06:54:21;102105.0;;;19.47;46.99
32452;BME280;45528;52.102;5.242;2023-05-24T06:55:57;102107.0;;;19.22;47.39
32452;BME280;45528;52.102;5.242;2023-05-24T06:57:34;102105.0;;;19.55;46.71
32452;BME280;45528;52.102;5.242;2023-05-24T07:00:45;102111.0;;;19.31;47.44
32452;BME280;45528;52.102;5.242;2023-05-24T07:02:22;102105.0;;;19.34;47.09
32452;BME280;45528;52.102;5.242;2023-05-24T07:03:58;102105.0;;;19.38;46.5
32452;BME280;45528;52.102;5.242;2023-05-24T07:07:11;102111.0;;;19.59;46.37
32452;BME280;45528;52.102;5.242;2023-05-24T07:08:47;102113.0;;;20.02;46.37
32452;BME280;45528;52.102;5.242;2023-05-24T07:10:23;102109.0;;;19.93;45.76
32452;BME280;45528;52.102;5.242;2023-05-24T07:13:35;102111.0;;;19.95;44.9
32452;BME280;45528;52.102;5.242;2023-05-24T07:15:12;102108.0;;;19.95;44.08
32452;BME280;45528;52.102;5.242;2023-05-24T07:16:48;102115.0;;;20.05;43.68
32452;BME280;45528;52.102;5.242;2023-05-24T07:18:24;102119.0;;;20.13;44.09
32452;BME280;45528;52.102;5.242;2023-05-24T07:21:36;102117.0;;;19.73;44.44
32452;BME280;45528;52.102;5.242;2023-05-24T07:23:12;102112.0;;;19.86;44.43
32452;BME280;45528;52.102;5.242;2023-05-24T07:24:48;102114.0;;;19.93;44.4
32452;BME280;45528;52.102;5.242;2023-05-24T07:28:01;102116.0;;;20.25;43.67
32452;BME280;45528;52.102;5.242;2023-05-24T07:29:37;102108.0;;;20.54;43.53
32452;BME280;45528;52.102;5.242;2023-05-24T07:31:13;102112.0;;;20.92;43.85
32452;BME280;45528;52.102;5.242;2023-05-24T07:34:25;102114.0;;;20.87;42.15
32452;BME280;45528;52.102;5.242;2023-05-24T07:36:02;102116.0;;;20.81;42.69
32452;BME280;45528;52.102;5.242;2023-05-24T07:37:38;102122.0;;;20.64;42.86
32452;BME280;45528;52.102;5.242;2023-05-24T07:40:51;102119.0;;;20.57;43.41
32452;BME280;45528;52.102;5.242;2023-05-24T07:42:27;102122.0;;;20.46;43.49
32452;BME280;45528;52.102;5.242;2023-05-24T07:44:03;102121.0;;;20.57;42.9
32452;BME280;45528;52.102;5.242;2023-05-24T07:45:39;102117.0;;;20.5;43.87
32452;BME280;45528;52.102;5.242;2023-05-24T07:48:52;102117.0;;;20.71;43.2
32452;BME280;45528;52.102;5.242;2023-05-24T07:50:28;102110.0;;;20.53;42.61
32452;BME280;45528;52.102;5.242;2023-05-24T07:52:04;102115.0;;;20.65;42.23
32452;BME280;45528;52.102;5.242;2023-05-24T07:55:16;102113.0;;;20.5;42.28
32452;BME280;45528;52.102;5.242;2023-05-24T07:56:52;102111.0;;;20.2;43.24
32452;BME280;45528;52.102;5.242;2023-05-24T07:58:29;102109.0;;;20.16;43.38
32452;BME280;45528;52.102;5.242;2023-05-24T08:01:43;102113.0;;;20.41;43.1
32452;BME280;45528;52.102;5.242;2023-05-24T08:03:19;102117.0;;;20.55;41.51
32452;BME280;45528;52.102;5.242;2023-05-24T08:04:55;102118.0;;;20.83;41.25
32452;BME280;45528;52.102;5.242;2023-05-24T08:06:31;102112.0;;;21.24;41.37
32452;BME280;45528;52.102;5.242;2023-05-24T08:09:44;102114.0;;;21.42;41.11
32452;BME280;45528;52.102;5.242;2023-05-24T08:11:20;102111.0;;;21.37;39.53
32452;BME280;45528;52.102;5.242;2023-05-24T08:12:56;102112.0;;;21.45;39.85
32452;BME280;45528;52.102;5.242;2023-05-24T08:16:08;102112.0;;;21.18;40.57
32452;BME280;45528;52.102;5.242;2023-05-24T08:17:44;102115.0;;;21.52;39.75
32452;BME280;45528;52.102;5.242;2023-05-24T08:19:21;102112.0;;;21.79;39.44
32452;BME280;45528;52.102;5.242;2023-05-24T08:22:33;102118.0;;;21.66;38.79
32452;BME280;45528;52.102;5.242;2023-05-24T08:24:09;102118.0;;;21.48;39.28
32452;BME280;45528;52.102;5.242;2023-05-24T08:25:45;102114.0;;;21.15;40.33
32452;BME280;45528;52.102;5.242;2023-05-24T08:28:57;102114.0;;;21.07;40.26
32452;BME280;45528;52.102;5.242;2023-05-24T08:30:33;102115.0;;;20.89;39.87
32452;BME280;45528;52.102;5.242;2023-05-24T08:32:10;102119.0;;;20.73;40.33
32452;BME280;45528;52.102;5.242;2023-05-24T08:33:46;102120.0;;;20.78;41.05
32452;BME280;45528;52.102;5.242;2023-05-24T08:36:58;102120.0;;;20.86;39.83
32452;BME280;45528;52.102;5.242;2023-05-24T08:38:34;102114.0;;;20.64;40.79
32452;BME280;45528;52.102;5.242;2023-05-24T08:40:11;102114.0;;;21.3;39.78
32452;BME280;45528;52.102;5.242;2023-05-24T08:43:25;102114.0;;;21.47;38.75
32452;BME280;45528;52.102;5.242;2023-05-24T08:45:04;102112.0;;;21.38;38.25
32452;BME280;45528;52.102;5.242;2023-05-24T08:46:43;102102.0;;;21.63;38.49
32452;BME280;45528;52.102;5.242;2023-05-24T08:48:21;102105.0;;;21.99;38.6
32452;BME280;45528;52.102;5.242;2023-05-24T08:51:36;102099.0;;;21.94;38.4
32452;BME280;45528;52.102;5.242;2023-05-24T08:53:14;102105.0;;;21.9;38.89
32452;BME280;45528;52.102;5.242;2023-05-24T08:54:51;102107.0;;;22.15;38.12
32452;BME280;45528;52.102;5.242;2023-05-24T08:58:05;102103.0;;;21.83;38.79
32452;BME280;45528;52.102;5.242;2023-05-24T08:59:43;102107.0;;;21.97;38.85
32452;BME280;45528;52.102;5.242;2023-05-24T09:01:19;102108.0;;;21.99;38.87
32452;BME280;45528;52.102;5.242;2023-05-24T09:04:35;102110.0;;;21.72;39.86
32452;BME280;45528;52.102;5.242;2023-05-24T09:06:12;102108.0;;;21.41;39.5
32452;BME280;45528;52.102;5.242;2023-05-24T09:07:54;102107.0;;;21.17;39.72
32452;BME280;45528;52.102;5.242;2023-05-24T09:09:33;102102.0;;;21.5;38.72
32452;BME280;45528;52.102;5.242;2023-05-24T09:12:50;102099.0;;;21.37;38.72
32452;BME280;45528;52.102;5.242;2023-05-24T09:14:31;102101.0;;;21.21;39.96
32452;BME280;45528;52.102;5.242;2023-05-24T09:16:08;102101.0;;;22.0;39.56
32452;BME280;45528;52.102;5.242;2023-05-24T09:17:44;102106.0;;;21.9;38.82
32452;BME280;45528;52.102;5.242;2023-05-24T09:20:57;102105.0;;;21.88;39.58
32452;BME280;45528;52.102;5.242;2023-05-24T09:22:34;102110.0;;;22.2;37.89
32452;BME280;45528;52.102;5.242;2023-05-24T09:24:11;102109.0;;;21.63;37.64
32452;BME280;45528;52.102;5.242;2023-05-24T09:27:23;102116.0;;;21.17;38.83
32452;BME280;45528;52.102;5.242;2023-05-24T09:28:59;102113.0;;;21.93;38.25
32452;BME280;45528;52.102;5.242;2023-05-24T09:30:35;102120.0;;;21.6;38.36
32452;BME280;45528;52.102;5.242;2023-05-24T09:33:47;102118.0;;;21.82;38.54
32452;BME280;45528;52.102;5.242;2023-05-24T09:35:24;102110.0;;;21.99;37.94
32452;BME280;45528;52.102;5.242;2023-05-24T09:37:01;102115.0;;;22.3;38.28
32452;BME280;45528;52.102;5.242;2023-05-24T09:38:37;102110.0;;;22.49;37.44
32452;BME280;45528;52.102;5.242;2023-05-24T09:41:53;102111.0;;;22.73;37.5
32452;BME280;45528;52.102;5.242;2023-05-24T09:43:31;102108.0;;;22.76;36.93
32452;BME280;45528;52.102;5.242;2023-05-24T09:45:08;102101.0;;;22.42;37.18
32452;BME280;45528;52.102;5.242;2023-05-24T09:48:20;102105.0;;;22.6;37.72
32452;BME280;45528;52.102;5.242;2023-05-24T09:49:56;102108.0;;;22.17;37.99
32452;BME280;45528;52.102;5.242;2023-05-24T09:51:35;102108.0;;;22.13;38.49
32452;BME280;45528;52.102;5.242;2023-05-24T09:53:16;102111.0;;;22.14;38.85
32452;BME280;45528;52.102;5.242;2023-05-24T09:56:29;102112.0;;;21.65;38.26
32452;BME280;45528;52.102;5.242;2023-05-24T09:58:08;102111.0;;;21.78;38.28
32452;BME280;45528;52.102;5.242;2023-05-24T09:59:44;102105.0;;;22.03;38.5
32452;BME280;45528;52.102;5.242;2023-05-24T10:03:00;102103.0;;;21.91;38.12
32452;BME280;45528;52.102;5.242;2023-05-24T10:04:36;102112.0;;;22.02;38.22
32452;BME280;45528;52.102;5.242;2023-05-24T10:06:13;102110.0;;;21.82;38.78
32452;BME280;45528;52.102;5.242;2023-05-24T10:07:49;102108.0;;;21.88;38.14
32452;BME280;45528;52.102;5.242;2023-05-24T10:11:04;102109.0;;;21.94;38.33
32452;BME280;45528;52.102;5.242;2023-05-24T10:12:41;102109.0;;;22.34;37.62
32452;BME280;45528;52.102;5.242;2023-05-24T10:14:17;102111.0;;;22.16;38.17
32452;BME280;45528;52.102;5.242;2023-05-24T10:17:30;102107.0;;;22.56;38.1
32452;BME280;45528;52.102;5.242;2023-05-24T10:19:06;102109.0;;;22.58;36.74
32452;BME280;45528;52.102;5.242;2023-05-24T10:20:43;102114.0;;;22.42;36.33
32452;BME280;45528;52.102;5.242;2023-05-24T10:23:58;102108.0;;;22.52;36.67
32452;BME280;45528;52.102;5.242;2023-05-24T10:25:40;102111.0;;;22.66;36.64
32452;BME280;45528;52.102;5.242;2023-05-24T10:27:21;102105.0;;;22.38;36.85
32452;BME280;45528;52.102;5.242;2023-05-24T10:29:03;102106.0;;;22.2;37.14
32452;BME280;45528;52.102;5.242;2023-05-24T10:32:30;102106.0;;;22.13;37.24
32452;BME280;45528;52.102;5.242;2023-05-24T10:34:09;102110.0;;;21.89;36.82
32452;BME280;45528;52.102;5.242;2023-05-24T10:35:46;102109.0;;;22.06;37.79
32452;BME280;45528;52.102;5.242;2023-05-24T10:37:23;102109.0;;;21.72;37.39
32452;BME280;45528;52.102;5.242;2023-05-24T10:40:40;102106.0;;;21.79;37.06
32452;BME280;45528;52.102;5.242;2023-05-24T10:42:17;102105.0;;;22.07;37.29
32452;BME280;45528;52.102;5.242;2023-05-24T10:43:53;102111.0;;;22.14;37.68
32452;BME280;45528;52.102;5.242;2023-05-24T10:45:33;102109.0;;;22.09;37.89
32452;BME280;45528;52.102;5.242;2023-05-24T10:48:59;102108.0;;;22.2;37.56
32452;BME280;45528;52.102;5.242;2023-05-24T10:50:35;102109.0;;;22.19;37.54
32452;BME280;45528;52.102;5.242;2023-05-24T10:52:11;102106.0;;;22.21;38.03
32452;BME280;45528;52.102;5.242;2023-05-24T10:55:25;102106.0;;;22.19;38.57
32452;BME280;45528;52.102;5.242;2023-05-24T10:57:01;102102.0;;;22.18;38.53
32452;BME280;45528;52.102;5.242;2023-05-24T10:58:57;102099.0;;;21.93;37.87
32452;BME280;45528;52.102;5.242;2023-05-24T11:00:42;102095.0;;;21.92;37.83
32452;BME280;45528;52.102;5.242;2023-05-24T11:02:18;102095.0;;;21.89;36.89
32452;BME280;45528;52.102;5.242;2023-05-24T11:05:52;102099.0;;;22.32;37.64
32452;BME280;45528;52.102;5.242;2023-05-24T11:07:28;102100.0;;;22.18;35.87